Time;durP1;ratioP1;P1;durP2;ratioP2;P2;SDS_P1;SDS_P2;PMS_P1;PMS_P2;Temp;Humidity;BMP_temperature;BMP_pressure;BME280_temperature;BME280_humidity;BME280_pressure;Samples;Min_cycle;Max_cycle;Signal;HPM_P1;HPM_P2
2024/05/01 00:01:47;;;;;;;11.90;7.90;;;;;;;16.52;100.00;101027.19;5418887;26;20038;-77
2024/05/01 00:04:13;;;;;;;17.45;7.95;;;;;;;16.51;100.00;101028.97;5450376;26;19995;-77
2024/05/01 00:06:38;;;;;;;13.52;8.07;;;;;;;16.46;100.00;101036.63;5450211;26;19998;-77
2024/05/01 00:09:03;;;;;;;13.00;7.97;;;;;;;16.44;100.00;101033.25;5481630;26;20013;-77
2024/05/01 00:11:29;;;;;;;15.65;8.88;;;;;;;16.41;100.00;101028.22;5486406;26;20002;-77
2024/05/01 00:13:54;;;;;;;14.45;8.20;;;;;;;16.38;100.00;101040.03;5486302;26;20357;-77
2024/05/01 00:16:19;;;;;;;13.63;8.35;;;;;;;16.36;100.00;101036.69;5486651;26;20074;-77
2024/05/01 00:18:45;;;;;;;13.32;7.68;;;;;;;16.34;100.00;101033.31;5485477;26;20017;-77
2024/05/01 00:21:11;;;;;;;11.20;6.95;;;;;;;16.34;100.00;101021.75;5454450;26;20307;-77
2024/05/01 00:23:38;;;;;;;14.57;8.57;;;;;;;16.26;100.00;101002.94;5485450;26;20004;-77
2024/05/01 00:26:03;;;;;;;15.85;7.53;;;;;;;16.25;100.00;101001.28;5423651;26;19994;-77
2024/05/01 00:28:28;;;;;;;16.40;7.45;;;;;;;16.31;100.00;101004.19;5483254;26;20008;-77
2024/05/01 00:30:56;;;;;;;12.55;6.70;;;;;;;16.32;100.00;100992.50;5486498;26;20005;-77
2024/05/01 00:33:22;;;;;;;12.77;6.55;;;;;;;16.35;100.00;100996.72;5457628;26;20404;-78
2024/05/01 00:35:47;;;;;;;11.68;6.88;;;;;;;16.36;100.00;101001.09;5489495;26;19995;-77
2024/05/01 00:38:12;;;;;;;12.30;6.07;;;;;;;16.40;100.00;100994.44;5455823;26;20002;-77
2024/05/01 00:40:38;;;;;;;11.93;6.53;;;;;;;16.41;100.00;100991.59;5458220;26;20059;-76
2024/05/01 00:43:03;;;;;;;14.68;6.30;;;;;;;16.38;100.00;100981.19;5492348;26;20070;-76
2024/05/01 00:45:28;;;;;;;11.38;5.65;;;;;;;16.33;100.00;100966.63;5489915;26;19994;-77
2024/05/01 00:47:56;;;;;;;13.23;5.97;;;;;;;16.29;100.00;100970.56;5487265;26;20067;-77
2024/05/01 00:50:27;;;;;;;13.13;5.68;;;;;;;16.21;100.00;100964.16;5488676;26;20018;-77
2024/05/01 00:52:53;;;;;;;10.13;5.70;;;;;;;16.12;100.00;100964.22;5488543;26;20005;-77
2024/05/01 00:55:23;;;;;;;16.23;5.78;;;;;;;16.04;100.00;100968.47;5489357;26;19998;-77
2024/05/01 00:57:48;;;;;;;;;;;;;;;16.08;100.00;100979.69;5489663;26;20009;-76
2024/05/01 01:00:14;;;;;;;14.13;7.28;;;;;;;15.98;100.00;100982.41;5489649;26;19924;-77
2024/05/01 01:02:40;;;;;;;15.82;6.60;;;;;;;15.94;100.00;100985.50;5489146;26;20050;-77
2024/05/01 01:05:05;;;;;;;13.55;6.18;;;;;;;15.95;100.00;101000.56;5489289;26;20012;-77
2024/05/01 01:07:31;;;;;;;14.55;6.20;;;;;;;15.94;100.00;101001.56;5488364;26;20002;-77
2024/05/01 01:09:56;;;;;;;16.95;6.97;;;;;;;15.96;100.00;101007.63;5489185;26;20012;-77
2024/05/01 01:12:23;;;;;;;15.68;6.80;;;;;;;15.95;100.00;101006.75;5489025;26;20437;-77
2024/05/01 01:14:48;;;;;;;10.73;5.90;;;;;;;15.82;100.00;100991.06;5489377;26;20010;-77
2024/05/01 01:17:14;;;;;;;11.90;6.40;;;;;;;15.85;100.00;100997.94;5488060;26;20546;-77
2024/05/01 01:19:40;;;;;;;10.93;6.75;;;;;;;15.78;100.00;100999.53;5489238;26;20013;-77
2024/05/01 01:22:06;;;;;;;16.88;7.15;;;;;;;15.71;100.00;101003.72;5489132;26;20313;-77
2024/05/01 01:24:31;;;;;;;13.70;7.00;;;;;;;15.67;100.00;100997.84;5489374;26;20009;-77
2024/05/01 01:26:56;;;;;;;16.83;7.32;;;;;;;15.63;100.00;101002.63;5487475;26;20008;-76
2024/05/01 01:29:24;;;;;;;12.65;6.78;;;;;;;15.55;100.00;100991.81;5456373;26;20006;-77
2024/05/01 01:31:49;;;;;;;14.90;7.53;;;;;;;15.46;100.00;100993.53;5488188;26;20002;-77
2024/05/01 01:34:14;;;;;;;17.25;7.55;;;;;;;15.41;100.00;100994.97;5488301;26;19998;-77
2024/05/01 01:36:40;;;;;;;17.92;7.63;;;;;;;15.37;100.00;100986.38;5488508;26;19998;-77
2024/05/01 01:39:05;;;;;;;15.68;7.70;;;;;;;15.32;100.00;100989.47;5394764;26;20019;-77
2024/05/01 01:41:30;;;;;;;12.63;6.95;;;;;;;15.29;100.00;100986.25;5455256;26;19994;-77
2024/05/01 01:43:57;;;;;;;15.55;7.82;;;;;;;15.19;100.00;100980.94;5487373;26;19994;-77
2024/05/01 01:46:22;;;;;;;14.25;8.10;;;;;;;15.12;100.00;100972.66;5455882;26;20009;-77
2024/05/01 01:48:48;;;;;;;16.05;7.60;;;;;;;15.14;100.00;100980.53;5484961;26;20302;-77
2024/05/01 01:51:13;;;;;;;13.93;7.85;;;;;;;15.11;100.00;100972.81;5450775;26;20001;-76
2024/05/01 01:53:40;;;;;;;17.88;7.82;;;;;;;15.08;100.00;100976.59;5487881;26;20614;-76
2024/05/01 01:56:09;;;;;;;16.75;8.32;;;;;;;15.00;100.00;100976.44;5456049;26;19994;-77
2024/05/01 01:58:39;;;;;;;14.90;7.90;;;;;;;14.98;100.00;100978.44;5486849;26;20002;-77
2024/05/01 02:01:04;;;;;;;14.65;8.13;;;;;;;14.91;100.00;100958.66;5487038;26;20345;-77
2024/05/01 02:03:30;;;;;;;14.60;8.02;;;;;;;14.86;100.00;100961.72;5487761;26;19998;-77
2024/05/01 02:05:55;;;;;;;17.55;8.32;;;;;;;14.85;100.00;100977.88;5487584;26;20017;-77
2024/05/01 02:08:20;;;;;;;13.52;7.68;;;;;;;14.82;100.00;100975.50;5455861;26;20006;-81
2024/05/01 02:10:47;;;;;;;18.13;8.45;;;;;;;14.81;100.00;100979.13;5490789;26;20557;-76
2024/05/01 02:13:12;;;;;;;12.90;8.60;;;;;;;14.77;100.00;100970.56;5490427;26;20010;-76
2024/05/01 02:15:37;;;;;;;19.38;7.95;;;;;;;14.74;100.00;100985.03;5488644;26;20043;-77
2024/05/01 02:18:03;;;;;;;14.93;8.60;;;;;;;14.69;100.00;100986.44;5486227;26;20069;-77
2024/05/01 02:20:28;;;;;;;15.23;8.02;;;;;;;14.64;100.00;100994.03;5485809;26;20301;-76
2024/05/01 02:22:54;;;;;;;19.83;8.48;;;;;;;14.64;100.00;100996.69;5487235;26;20411;-77
2024/05/01 02:25:19;;;;;;;10.80;8.05;;;;;;;14.57;100.00;100988.34;5487577;26;19998;-77
2024/05/01 02:27:44;;;;;;;13.95;8.85;;;;;;;14.62;100.00;100994.16;5486581;26;19994;-77
2024/05/01 02:30:10;;;;;;;15.95;8.13;;;;;;;14.63;100.00;100995.81;5486138;26;20485;-76
2024/05/01 02:32:37;;;;;;;14.15;8.50;;;;;;;14.61;100.00;100989.78;5487435;26;20005;-77
2024/05/01 02:35:02;;;;;;;14.07;7.97;;;;;;;14.57;100.00;100993.66;5487538;26;19994;-77
2024/05/01 02:37:28;;;;;;;14.10;7.80;;;;;;;14.52;100.00;100996.78;5481842;26;20343;-77
2024/05/01 02:39:53;;;;;;;13.30;7.88;;;;;;;14.51;100.00;100997.75;5486996;26;20002;-77
2024/05/01 02:42:18;;;;;;;14.55;8.45;;;;;;;14.34;100.00;100972.59;5486896;26;20337;-77
2024/05/01 02:44:44;;;;;;;15.80;9.10;;;;;;;14.50;100.00;100992.56;5487114;26;19998;-77
2024/05/01 02:47:09;;;;;;;15.77;8.88;;;;;;;14.47;100.00;100998.16;5485791;26;20270;-77
2024/05/01 02:49:34;;;;;;;13.13;7.85;;;;;;;14.41;100.00;100996.91;5486988;26;19994;-77
2024/05/01 02:51:59;;;;;;;15.63;7.65;;;;;;;14.42;100.00;101001.22;5485759;26;20038;-77
2024/05/01 02:54:25;;;;;;;15.73;7.93;;;;;;;14.41;100.00;100997.72;5486905;26;20010;-77
2024/05/01 02:56:50;;;;;;;14.02;7.65;;;;;;;14.43;100.00;100986.94;5487278;26;20074;-77
2024/05/01 02:59:15;;;;;;;13.20;8.00;;;;;;;14.40;100.00;100965.88;5484613;26;19994;-77
2024/05/01 03:01:41;;;;;;;15.93;7.78;;;;;;;14.36;100.00;100967.13;5486798;26;19990;-76
2024/05/01 03:04:06;;;;;;;13.40;7.20;;;;;;;14.47;100.00;100974.16;5486327;26;20002;-77
2024/05/01 03:06:32;;;;;;;14.07;7.40;;;;;;;14.37;100.00;100961.66;5487394;26;19997;-77
2024/05/01 03:08:58;;;;;;;11.70;7.13;;;;;;;14.47;100.00;100963.50;5486536;26;20009;-77
2024/05/01 03:11:24;;;;;;;12.18;7.65;;;;;;;14.44;100.00;100971.78;5455187;26;19998;-77
2024/05/01 03:13:51;;;;;;;12.80;7.72;;;;;;;14.45;100.00;100968.13;5487549;26;20445;-77
2024/05/01 03:16:16;;;;;;;15.40;7.65;;;;;;;14.41;100.00;100970.25;5487745;26;20429;-77
2024/05/01 03:18:42;;;;;;;11.27;7.40;;;;;;;14.38;100.00;100965.19;5486471;26;20354;-77
2024/05/01 03:21:07;;;;;;;14.02;7.80;;;;;;;14.34;100.00;100972.59;5487368;26;19998;-77
2024/05/01 03:23:34;;;;;;;15.85;7.40;;;;;;;14.25;100.00;100949.44;5487227;26;20009;-77
2024/05/01 03:26:00;;;;;;;16.85;8.02;;;;;;;14.26;100.00;100964.44;5487166;26;20274;-77
2024/05/01 03:28:25;;;;;;;15.80;7.93;;;;;;;14.29;100.00;100969.50;5486343;26;20006;-77
2024/05/01 03:30:52;;;;;;;17.42;8.73;;;;;;;14.27;100.00;100973.28;5487166;26;20010;-77
2024/05/01 03:33:17;;;;;;;15.63;7.75;;;;;;;14.15;100.00;100949.44;5487173;26;20006;-77
2024/05/01 03:35:42;;;;;;;16.40;8.85;;;;;;;14.24;100.00;100966.41;5487175;26;20456;-77
2024/05/01 03:38:08;;;;;;;13.98;7.88;;;;;;;14.19;100.00;100940.16;5484001;26;20005;-77
2024/05/01 03:40:34;;;;;;;17.77;8.77;;;;;;;14.24;100.00;100950.41;5486709;26;20006;-76
2024/05/01 03:42:59;;;;;;;15.23;8.27;;;;;;;14.21;100.00;100945.34;5456483;26;20259;-76
2024/05/01 03:45:25;;;;;;;20.05;9.25;;;;;;;14.17;100.00;100943.97;5488007;26;20022;-76
2024/05/01 03:47:52;;;;;;;17.50;8.82;;;;;;;14.18;100.00;100956.28;5484554;26;20480;-77
2024/05/01 03:50:17;;;;;;;15.55;9.00;;;;;;;14.16;100.00;100947.59;5485755;26;19994;-77
2024/05/01 03:52:43;;;;;;;16.23;8.98;;;;;;;14.14;100.00;100944.22;5485595;26;20009;-76
2024/05/01 03:55:10;;;;;;;17.92;8.75;;;;;;;14.12;100.00;100930.19;5485925;26;19998;-77
2024/05/01 03:57:35;;;;;;;13.10;8.18;;;;;;;14.22;100.00;100915.91;5448476;26;19994;-77
2024/05/01 04:00:01;;;;;;;14.77;8.63;;;;;;;14.18;100.00;100890.53;5486016;26;20009;-77
2024/05/01 04:02:26;;;;;;;16.30;8.63;;;;;;;14.29;100.00;100897.53;5485199;26;19994;-77
2024/05/01 04:04:51;;;;;;;14.88;8.30;;;;;;;14.30;100.00;100906.38;5453826;26;19998;-77
2024/05/01 04:07:17;;;;;;;12.90;8.55;;;;;;;14.23;100.00;100906.06;5425506;26;20006;-77
2024/05/01 04:09:44;;;;;;;15.85;9.00;;;;;;;14.18;100.00;100913.66;5487921;26;19998;-77
2024/05/01 04:12:11;;;;;;;14.30;8.02;;;;;;;14.18;100.00;100898.53;5457191;26;20009;-77
2024/05/01 04:14:37;;;;;;;16.00;8.73;;;;;;;14.14;100.00;100878.44;5489985;26;20013;-77
2024/05/01 04:17:03;;;;;;;18.08;8.07;;;;;;;14.25;100.00;100874.81;5455841;26;20262;-77
2024/05/01 04:19:29;;;;;;;15.35;8.38;;;;;;;14.30;100.00;100869.91;5485375;26;20010;-77
2024/05/01 04:21:54;;;;;;;13.10;7.82;;;;;;;14.29;100.00;100860.22;5489765;26;20013;-77
2024/05/01 04:24:19;;;;;;;14.00;9.02;;;;;;;14.27;100.00;100864.00;5489696;26;20002;-77
2024/05/01 04:26:45;;;;;;;15.55;7.97;;;;;;;14.29;100.00;100870.88;5489823;26;19994;-77
2024/05/01 04:29:10;;;;;;;15.95;8.13;;;;;;;14.28;100.00;100881.66;5484794;26;20002;-77
2024/05/01 04:31:35;;;;;;;17.05;8.35;;;;;;;14.28;100.00;100879.88;5489244;26;19994;-77
2024/05/01 04:34:02;;;;;;;12.80;8.02;;;;;;;14.21;100.00;100865.41;5489452;26;20013;-77
2024/05/01 04:36:29;;;;;;;12.98;8.23;;;;;;;14.32;100.00;100861.78;5489400;26;20005;-77
2024/05/01 04:38:55;;;;;;;14.68;7.60;;;;;;;14.36;100.00;100869.34;5482854;26;20050;-77
2024/05/01 04:41:20;;;;;;;16.27;8.45;;;;;;;14.38;100.00;100875.38;5486538;26;20326;-77
2024/05/01 04:43:47;;;;;;;12.32;7.50;;;;;;;14.34;100.00;100873.13;5488507;26;19990;-77
2024/05/01 04:46:12;;;;;;;12.15;7.55;;;;;;;14.33;100.00;100874.09;5488492;26;20013;-77
2024/05/01 04:48:39;;;;;;;14.93;7.88;;;;;;;14.34;100.00;100868.63;5487068;26;19990;-77
2024/05/01 04:51:10;;;;;;;15.95;7.95;;;;;;;14.37;100.00;100863.00;5454556;26;20331;-77
2024/05/01 04:53:37;;;;;;;14.30;7.40;;;;;;;14.43;100.00;100868.78;5488369;26;20005;-77
2024/05/01 04:56:05;;;;;;;17.88;7.90;;;;;;;14.43;100.00;100874.13;5487873;26;20441;-77
2024/05/01 04:58:30;;;;;;;12.48;7.95;;;;;;;14.39;100.00;100871.75;5479826;26;20021;-77
2024/05/01 05:00:56;;;;;;;14.50;7.70;;;;;;;14.33;100.00;100864.28;5456420;26;20430;-77
2024/05/01 05:03:21;;;;;;;14.95;7.47;;;;;;;14.39;100.00;100866.41;5456714;26;20090;-77
2024/05/01 05:05:46;;;;;;;11.68;7.72;;;;;;;14.46;100.00;100864.00;5484194;26;20002;-77
2024/05/01 05:08:12;;;;;;;12.50;7.45;;;;;;;14.54;100.00;100852.66;5453908;26;20336;-77
2024/05/01 05:10:37;;;;;;;15.57;7.53;;;;;;;14.61;100.00;100855.63;5489489;26;20051;-76
2024/05/01 05:13:03;;;;;;;12.50;7.47;;;;;;;14.73;100.00;100866.00;5493375;26;20009;-76
2024/05/01 05:15:29;;;;;;;16.77;7.80;;;;;;;14.79;100.00;100858.41;5460152;26;19994;-77
2024/05/01 05:17:55;;;;;;;15.40;7.60;;;;;;;14.84;100.00;100870.31;5454453;26;20002;-77
2024/05/01 05:20:20;;;;;;;16.60;7.78;;;;;;;14.88;100.00;100852.22;5489142;26;20017;-77
2024/05/01 05:22:45;;;;;;;15.13;7.50;;;;;;;14.90;100.00;100844.91;5488563;26;20027;-77
2024/05/01 05:25:10;;;;;;;14.98;6.93;;;;;;;14.95;100.00;100851.47;5488872;26;19998;-77
2024/05/01 05:27:40;;;;;;;12.60;7.40;;;;;;;15.04;100.00;100860.44;5487785;26;20338;-77
2024/05/01 05:30:06;;;;;;;16.17;6.80;;;;;;;15.10;100.00;100857.22;5489264;26;19999;-77
2024/05/01 05:32:31;;;;;;;14.52;7.30;;;;;;;15.13;100.00;100851.56;5486204;26;19998;-76
2024/05/01 05:34:58;;;;;;;14.50;7.35;;;;;;;15.21;100.00;100853.50;5455818;26;20006;-77
2024/05/01 05:37:23;;;;;;;15.32;7.47;;;;;;;15.11;100.00;100837.50;5484942;26;20014;-77
2024/05/01 05:39:49;;;;;;;11.88;7.38;;;;;;;15.24;100.00;100847.88;5487595;26;20018;-77
2024/05/01 05:42:14;;;;;;;13.73;7.20;;;;;;;15.17;100.00;100824.59;5487083;26;20414;-77
2024/05/01 05:44:40;;;;;;;14.15;7.28;;;;;;;15.34;100.00;100838.97;5485241;26;20481;-77
2024/05/01 05:47:07;;;;;;;11.82;6.70;;;;;;;15.51;100.00;100835.53;5486264;26;20012;-76
2024/05/01 05:49:33;;;;;;;22.13;7.45;;;;;;;15.63;100.00;100846.84;5455587;26;19998;-76
2024/05/01 05:51:59;;;;;;;13.32;7.13;;;;;;;15.66;100.00;100846.56;5454625;26;19994;-76
2024/05/01 05:54:24;;;;;;;14.63;7.90;;;;;;;15.67;100.00;100845.56;5455341;26;20350;-77
2024/05/01 05:56:50;;;;;;;16.52;7.03;;;;;;;15.72;100.00;100843.28;5486622;26;19998;-77
2024/05/01 05:59:15;;;;;;;11.73;7.20;;;;;;;15.81;100.00;100838.91;5423516;26;19998;-77
2024/05/01 06:01:40;;;;;;;16.33;7.70;;;;;;;15.91;100.00;100836.19;5486881;26;20002;-77
2024/05/01 06:04:06;;;;;;;12.70;7.53;;;;;;;16.03;100.00;100827.81;5487845;26;20002;-77
2024/05/01 06:06:31;;;;;;;13.40;7.13;;;;;;;16.14;100.00;100821.38;5487588;26;20009;-76
2024/05/01 06:08:56;;;;;;;13.32;7.95;;;;;;;16.21;100.00;100814.44;5484758;26;19994;-76
2024/05/01 06:11:22;;;;;;;17.48;8.30;;;;;;;16.33;100.00;100800.81;5487022;26;20006;-77
2024/05/01 06:13:49;;;;;;;14.75;8.05;;;;;;;16.39;100.00;100811.75;5487891;26;20324;-77
2024/05/01 06:16:16;;;;;;;13.50;7.82;;;;;;;16.52;100.00;100808.66;5455292;26;20332;-77
2024/05/01 06:18:41;;;;;;;13.02;8.32;;;;;;;16.67;100.00;100816.13;5484801;26;20063;-77
2024/05/01 06:21:07;;;;;;;15.88;7.60;;;;;;;16.78;100.00;100813.19;5487629;26;20018;-77
2024/05/01 06:23:32;;;;;;;18.98;8.10;;;;;;;16.82;100.00;100809.19;5486042;26;20380;-77
2024/05/01 06:25:58;;;;;;;14.18;7.30;;;;;;;17.00;100.00;100808.31;5480544;26;19998;-77
2024/05/01 06:28:27;;;;;;;16.55;8.40;;;;;;;16.96;100.00;100813.16;5449605;26;20090;-77
2024/05/01 06:30:52;;;;;;;14.80;7.80;;;;;;;16.95;100.00;100812.31;5482340;26;20005;-76
2024/05/01 06:33:17;;;;;;;19.83;8.10;;;;;;;16.94;100.00;100821.34;5484860;26;20216;-78
2024/05/01 06:35:44;;;;;;;17.33;8.13;;;;;;;17.03;100.00;100818.72;5422760;26;20005;-77
2024/05/01 06:38:09;;;;;;;16.48;7.45;;;;;;;17.11;100.00;100798.19;5484503;26;20418;-77
2024/05/01 06:40:37;;;;;;;15.48;8.05;;;;;;;17.26;100.00;100803.78;5484792;26;20005;-77
2024/05/01 06:43:04;;;;;;;13.27;7.63;;;;;;;17.50;100.00;100812.91;5489745;26;20062;-76
2024/05/01 06:45:29;;;;;;;15.70;6.93;;;;;;;17.59;100.00;100819.13;5494782;26;20034;-77
2024/05/01 06:47:55;;;;;;;12.05;7.20;;;;;;;17.75;100.00;100819.16;5485819;26;20110;-79
2024/05/01 06:50:20;;;;;;;17.63;7.55;;;;;;;17.75;100.00;100821.03;5455001;26;20402;-78
2024/05/01 06:52:47;;;;;;;18.02;7.18;;;;;;;17.76;100.00;100811.97;5454993;26;19994;-77
2024/05/01 06:55:12;;;;;;;19.27;6.40;;;;;;;17.95;100.00;100814.41;5487710;26;20323;-77
2024/05/01 06:57:40;;;;;;;16.50;6.60;;;;;;;18.21;100.00;100803.53;5452944;26;20026;-77
2024/05/01 07:00:09;;;;;;;15.67;6.97;;;;;;;18.38;100.00;100809.72;5487699;26;20079;-77
2024/05/01 07:02:34;;;;;;;12.07;5.93;;;;;;;18.40;100.00;100797.00;5456890;26;19998;-77
2024/05/01 07:04:59;;;;;;;17.67;6.35;;;;;;;18.56;100.00;100795.28;5488176;26;20345;-77
2024/05/01 07:07:26;;;;;;;14.95;5.90;;;;;;;18.70;100.00;100785.72;5486757;26;20074;-77
2024/05/01 07:09:51;;;;;;;16.52;6.43;;;;;;;18.77;100.00;100787.56;5487561;26;19994;-77
2024/05/01 07:12:16;;;;;;;13.90;6.03;;;;;;;18.86;100.00;100790.25;5455864;26;20022;-77
2024/05/01 07:14:42;;;;;;;19.33;6.88;;;;;;;18.97;100.00;100787.19;5487848;26;20002;-77
2024/05/01 07:17:07;;;;;;;12.57;5.40;;;;;;;19.11;100.00;100789.16;5486808;26;19994;-77
2024/05/01 07:19:33;;;;;;;18.95;6.45;;;;;;;19.19;100.00;100793.69;5488684;26;20008;-77
2024/05/01 07:21:59;;;;;;;15.15;6.10;;;;;;;19.31;100.00;100778.00;5455544;26;20012;-78
2024/05/01 07:24:24;;;;;;;16.48;6.30;;;;;;;19.49;100.00;100781.25;5487518;26;19998;-78
2024/05/01 07:26:50;;;;;;;15.20;6.57;;;;;;;19.50;100.00;100774.88;5487859;26;20066;-77
2024/05/01 07:29:15;;;;;;;13.70;6.97;;;;;;;19.46;100.00;100770.88;5486543;26;19998;-78
2024/05/01 07:31:40;;;;;;;15.40;6.53;;;;;;;19.42;100.00;100774.94;5487972;26;20002;-77
2024/05/01 07:34:06;;;;;;;17.27;7.90;;;;;;;19.34;100.00;100766.09;5487947;26;20002;-77
2024/05/01 07:36:33;;;;;;;16.48;7.60;;;;;;;19.23;100.00;100754.69;5467362;26;20002;-77
2024/05/01 07:38:58;;;;;;;17.48;7.38;;;;;;;19.39;100.00;100759.16;5476320;26;20114;-77
2024/05/01 07:41:23;;;;;;;20.23;8.40;;;;;;;19.42;100.00;100758.81;5479568;26;20187;-77
2024/05/01 07:43:49;;;;;;;15.27;7.47;;;;;;;19.70;100.00;100750.22;5487286;26;20070;-77
2024/05/01 07:46:14;;;;;;;16.05;8.55;;;;;;;19.89;100.00;100754.34;5487885;26;19998;-77
2024/05/01 07:48:41;;;;;;;19.08;8.13;;;;;;;20.00;100.00;100745.03;5460896;26;19999;-77
2024/05/01 07:51:07;;;;;;;21.77;9.77;;;;;;;20.06;100.00;100738.94;5487315;26;19995;-77
2024/05/01 07:53:33;;;;;;;15.50;9.07;;;;;;;20.12;100.00;100746.25;5482096;26;20071;-77
2024/05/01 07:55:59;;;;;;;21.48;9.23;;;;;;;20.08;100.00;100731.50;5486210;26;20409;-78
2024/05/01 07:58:25;;;;;;;18.55;9.40;;;;;;;20.09;100.00;100727.78;5480047;26;20006;-77
2024/05/01 08:00:50;;;;;;;19.00;8.82;;;;;;;20.03;100.00;100729.34;5486253;26;20084;-77
2024/05/01 08:03:15;;;;;;;16.20;8.90;;;;;;;20.05;100.00;100731.84;5453167;26;20013;-76
2024/05/01 08:05:41;;;;;;;20.05;10.25;;;;;;;20.17;100.00;100738.50;5485396;26;20021;-75
2024/05/01 08:08:07;;;;;;;16.08;10.20;;;;;;;20.26;100.00;100724.97;5482010;26;20003;-77
2024/05/01 08:10:34;;;;;;;15.15;9.68;;;;;;;20.38;100.00;100718.94;5453568;26;19994;-77
2024/05/01 08:13:00;;;;;;;17.08;10.07;;;;;;;20.46;100.00;100718.00;5491496;26;20454;-77
2024/05/01 08:15:25;;;;;;;24.50;11.00;;;;;;;20.63;100.00;100712.47;5490627;26;20009;-75
2024/05/01 08:17:50;;;;;;;28.30;11.13;;;;;;;20.77;100.00;100704.41;5486300;26;19998;-76
2024/05/01 08:20:16;;;;;;;20.30;10.85;;;;;;;20.94;100.00;100709.59;5486077;26;20382;-78
2024/05/01 08:22:42;;;;;;;21.42;10.80;;;;;;;21.05;100.00;100705.59;5483138;26;20157;-76
2024/05/01 08:25:08;;;;;;;19.92;11.35;;;;;;;21.15;100.00;100697.22;5452855;26;20016;-76
2024/05/01 08:27:33;;;;;;;18.67;11.30;;;;;;;21.36;100.00;100691.03;5483622;26;20009;-76
2024/05/01 08:30:00;;;;;;;22.00;10.73;;;;;;;21.64;100.00;100689.28;5485437;26;21936;-77
2024/05/01 08:32:28;;;;;;;24.45;11.55;;;;;;;21.73;100.00;100673.78;5485337;26;20006;-77
2024/05/01 08:34:54;;;;;;;27.13;11.50;;;;;;;21.81;100.00;100686.31;5485653;26;20482;-77
2024/05/01 08:37:23;;;;;;;23.00;11.70;;;;;;;21.82;100.00;100680.72;5484131;26;20021;-77
2024/05/01 08:39:48;;;;;;;29.55;12.48;;;;;;;22.00;100.00;100677.56;5453549;26;20010;-77
2024/05/01 08:42:21;;;;;;;18.95;11.70;;;;;;;22.21;100.00;100679.38;5484550;26;20039;-77
2024/05/01 08:44:55;;;;;;;22.38;12.82;;;;;;;22.51;100.00;100690.00;5455715;26;20038;-77
2024/05/01 08:47:24;;;;;;;19.48;12.15;;;;;;;22.69;100.00;100686.75;5484392;26;19998;-76
2024/05/01 08:49:49;;;;;;;24.77;12.70;;;;;;;22.87;100.00;100693.50;5453346;26;19994;-77
2024/05/01 08:52:17;;;;;;;22.02;12.00;;;;;;;22.97;100.00;100690.44;5453571;26;20002;-77
2024/05/01 08:54:48;;;;;;;23.73;13.65;;;;;;;22.91;100.00;100689.34;5488380;26;20010;-77
2024/05/01 08:57:16;;;;;;;22.42;13.68;;;;;;;22.82;99.86;100679.78;5456374;26;20137;-77
2024/05/01 08:59:42;;;;;;;22.20;13.05;;;;;;;23.01;100.00;100672.78;5458088;26;20005;-77
2024/05/01 09:02:17;;;;;;;27.95;13.82;;;;;;;23.08;100.00;100679.88;5489842;26;20002;-77
2024/05/01 09:04:44;;;;;;;24.50;14.25;;;;;;;23.07;99.17;100672.84;5457624;26;20066;-77
2024/05/01 09:07:13;;;;;;;23.45;13.13;;;;;;;23.26;100.00;100671.22;5455998;26;20013;-77
2024/05/01 09:09:45;;;;;;;25.65;14.18;;;;;;;23.27;98.76;100667.47;5458269;26;20002;-77
2024/05/01 09:12:11;;;;;;;28.13;13.90;;;;;;;23.43;98.43;100657.34;5490015;26;20029;-77
2024/05/01 09:14:41;;;;;;;27.27;13.73;;;;;;;23.69;100.00;100653.81;5457589;26;20030;-77
2024/05/01 09:17:06;;;;;;;;;;;;;;;24.05;100.00;100647.16;5489321;26;20010;-76
2024/05/01 09:19:40;;;;;;;29.10;14.00;;;;;;;24.18;97.83;100657.16;5489978;26;19924;-78
2024/05/01 09:22:28;;;;;;;26.15;13.70;;;;;;;24.30;98.85;100652.75;5457340;26;20219;-77
2024/05/01 09:24:54;;;;;;;24.03;13.77;;;;;;;24.33;95.99;100652.34;5489489;26;20040;-76
2024/05/01 09:27:22;;;;;;;26.88;14.27;;;;;;;24.37;93.92;100653.56;5458731;26;19995;-77
2024/05/01 09:29:48;;;;;;;27.15;13.73;;;;;;;24.67;96.04;100660.41;5489488;26;20275;-77
2024/05/01 09:32:14;;;;;;;26.55;14.75;;;;;;;24.43;93.25;100653.78;5489408;26;20014;-77
2024/05/01 09:34:39;;;;;;;26.75;13.88;;;;;;;24.69;96.63;100658.31;5489738;26;20022;-78
2024/05/01 09:37:07;;;;;;;29.08;15.23;;;;;;;24.62;93.40;100649.34;5488373;26;20455;-77
2024/05/01 09:39:39;;;;;;;26.80;14.32;;;;;;;24.89;94.83;100653.66;5457373;26;20310;-77
2024/05/01 09:42:05;;;;;;;29.35;14.80;;;;;;;24.93;90.03;100648.63;5489795;26;20010;-76
2024/05/01 09:44:33;;;;;;;30.25;14.52;;;;;;;25.19;90.97;100647.66;5490248;26;20010;-77
2024/05/01 09:47:03;;;;;;;31.25;14.77;;;;;;;25.34;89.74;100643.84;5488451;26;20009;-77
2024/05/01 09:49:30;;;;;;;29.55;16.63;;;;;;;25.33;90.11;100632.16;5457812;26;19999;-77
2024/05/01 09:51:56;;;;;;;32.25;16.00;;;;;;;25.41;89.38;100634.59;5489203;26;20026;-77
2024/05/01 09:54:24;;;;;;;36.60;15.65;;;;;;;25.33;90.01;100618.59;5489182;26;20002;-77
2024/05/01 09:56:51;;;;;;;24.48;16.23;;;;;;;25.42;89.26;100613.72;5488823;26;20376;-77
2024/05/01 09:59:19;;;;;;;30.95;16.83;;;;;;;25.60;92.15;100616.53;5487556;26;20449;-77
2024/05/01 10:01:53;;;;;;;25.10;17.10;;;;;;;25.71;90.83;100623.09;5489171;26;19994;-77
2024/05/01 10:04:34;;;;;;;29.33;16.50;;;;;;;25.82;88.44;100616.13;5456112;26;20029;-77
2024/05/01 10:07:05;;;;;;;28.45;16.75;;;;;;;26.19;90.66;100608.91;5487877;26;20013;-78
2024/05/01 10:09:33;;;;;;;31.35;18.08;;;;;;;26.37;88.84;100616.22;5458588;26;20013;-77
2024/05/01 10:12:03;;;;;;;29.42;16.80;;;;;;;26.05;85.94;100611.97;5427919;26;20466;-77
2024/05/01 10:14:40;;;;;;;31.15;16.40;;;;;;;26.25;92.54;100601.72;5488739;26;19998;-77
2024/05/01 10:17:08;;;;;;;32.38;18.10;;;;;;;26.31;88.23;100583.72;5487592;26;20037;-77
2024/05/01 10:19:33;;;;;;;27.48;16.63;;;;;;;26.50;86.46;100596.22;5489064;26;19998;-77
2024/05/01 10:22:01;;;;;;;28.60;17.33;;;;;;;26.41;83.87;100600.31;5488950;26;20009;-77
2024/05/01 10:24:33;;;;;;;27.38;15.93;;;;;;;26.37;86.98;100585.50;5457489;26;20070;-77
2024/05/01 10:27:01;;;;;;;27.52;16.17;;;;;;;26.49;88.48;100580.16;5450722;26;20439;-77
2024/05/01 10:29:37;;;;;;;32.13;17.00;;;;;;;26.39;89.47;100577.97;5488751;26;20002;-77
2024/05/01 10:32:22;;;;;;;30.17;18.30;;;;;;;26.58;88.31;100570.59;5486726;26;19994;-77
2024/05/01 10:34:52;;;;;;;34.28;18.08;;;;;;;26.71;88.46;100572.34;5488405;26;20051;-77
2024/05/01 10:37:20;;;;;;;31.02;18.13;;;;;;;26.92;86.59;100568.31;5487205;26;19998;-77
2024/05/01 10:39:48;;;;;;;30.40;18.08;;;;;;;26.68;91.13;100549.19;5488572;26;20002;-78
2024/05/01 10:42:16;;;;;;;34.72;19.55;;;;;;;26.16;86.55;100559.63;5488514;26;20002;-77
2024/05/01 10:44:44;;;;;;;39.83;21.17;;;;;;;25.90;86.68;100555.28;5488635;26;20020;-77
2024/05/01 10:47:10;;;;;;;32.05;19.02;;;;;;;26.05;90.22;100547.66;5455618;26;20118;-77
2024/05/01 10:49:35;;;;;;;43.50;21.58;;;;;;;25.91;92.65;100546.91;5456715;26;20101;-78
2024/05/01 10:52:25;;;;;;;30.20;19.58;;;;;;;26.12;88.81;100542.13;5469215;26;20010;-78
2024/05/01 10:54:52;;;;;;;34.08;20.27;;;;;;;26.48;90.70;100537.72;5478914;26;20074;-77
2024/05/01 10:57:21;;;;;;;33.03;19.50;;;;;;;26.65;85.99;100541.50;5481949;26;19990;-77
2024/05/01 11:00:00;;;;;;;33.17;19.13;;;;;;;26.93;85.84;100548.22;5488105;26;19994;-78
2024/05/01 11:02:29;;;;;;;37.53;20.15;;;;;;;27.08;87.95;100537.75;5451927;26;20002;-77
2024/05/01 11:04:58;;;;;;;37.17;20.65;;;;;;;27.08;84.75;100540.47;5456500;26;20047;-78
2024/05/01 11:07:24;;;;;;;31.98;20.13;;;;;;;27.26;87.78;100542.25;5487293;26;20069;-77